Time;durP1;ratioP1;P1;durP2;ratioP2;P2;SDS_P1;SDS_P2;PMS_P1;PMS_P2;Temp;Humidity;BMP_temperature;BMP_pressure;BME280_temperature;BME280_humidity;BME280_pressure;Samples;Min_cycle;Max_cycle;Signal;HPM_P1;HPM_P2
2021/08/31 00:02:25;;;;;;;4.90;2.22;;;13.90;77.20;;;;;;4806902;29;20066;-79
2021/08/31 00:04:53;;;;;;;3.97;1.92;;;13.90;77.20;;;;;;4805843;29;20047;-78
2021/08/31 00:07:20;;;;;;;5.47;2.15;;;13.90;77.20;;;;;;4803159;29;20077;-78
2021/08/31 00:09:48;;;;;;;4.38;2.28;;;13.90;77.20;;;;;;4805558;29;20062;-78
2021/08/31 00:12:16;;;;;;;5.70;2.58;;;13.80;77.20;;;;;;4820398;29;20066;-79
2021/08/31 00:14:44;;;;;;;4.90;2.67;;;13.80;77.20;;;;;;4807058;29;20066;-79
2021/08/31 00:17:16;;;;;;;3.92;2.42;;;13.80;77.30;;;;;;4821672;29;20054;-78
2021/08/31 00:19:44;;;;;;;5.22;2.00;;;13.80;77.30;;;;;;4808522;29;20047;-79
2021/08/31 00:22:12;;;;;;;5.65;1.77;;;13.80;77.40;;;;;;4807113;29;20054;-78
2021/08/31 00:24:40;;;;;;;2.10;1.50;;;13.80;77.40;;;;;;4805555;29;20489;-78
2021/08/31 00:27:08;;;;;;;3.67;2.00;;;13.80;77.40;;;;;;4807158;29;20055;-77
2021/08/31 00:29:36;;;;;;;2.70;1.50;;;13.80;77.30;;;;;;4805946;29;20050;-78
2021/08/31 00:32:04;;;;;;;2.67;1.60;;;13.90;77.30;;;;;;4806810;29;20055;-79
2021/08/31 00:34:32;;;;;;;4.75;1.88;;;13.80;77.10;;;;;;4806479;29;20055;-79
2021/08/31 00:36:59;;;;;;;3.00;1.70;;;13.90;77.00;;;;;;4806591;29;20046;-79
2021/08/31 00:39:27;;;;;;;7.70;2.10;;;13.90;76.90;;;;;;4820526;29;20058;-79
2021/08/31 00:41:55;;;;;;;2.47;1.73;;;13.90;76.90;;;;;;4806851;29;20054;-78
2021/08/31 00:44:25;;;;;;;5.90;1.95;;;13.80;76.90;;;;;;4806674;29;20063;-78
2021/08/31 00:46:57;;;;;;;2.92;1.55;;;13.90;76.70;;;;;;4802257;29;20496;-77
2021/08/31 00:49:26;;;;;;;4.28;1.92;;;13.80;76.70;;;;;;4806678;29;20053;-78
2021/08/31 00:51:57;;;;;;;3.33;1.95;;;13.80;76.60;;;;;;4820629;29;20067;-78
2021/08/31 00:54:27;;;;;;;4.30;2.30;;;13.90;76.70;;;;;;4821147;29;20062;-78
2021/08/31 00:56:58;;;;;;;3.95;2.17;;;13.80;77.00;;;;;;4809537;29;20065;-79
2021/08/31 00:59:26;;;;;;;3.30;2.40;;;13.80;77.10;;;;;;4805039;29;20071;-79
2021/08/31 01:01:55;;;;;;;4.78;2.05;;;13.80;77.20;;;;;;4805778;29;20066;-78
2021/08/31 01:04:25;;;;;;;4.55;1.90;;;13.80;77.30;;;;;;4805132;29;20047;-79
2021/08/31 01:06:54;;;;;;;2.67;1.80;;;13.80;77.40;;;;;;4807596;29;20055;-79
2021/08/31 01:09:23;;;;;;;4.93;1.52;;;13.80;77.40;;;;;;4807570;29;20054;-78
2021/08/31 01:11:51;;;;;;;2.60;1.42;;;13.80;77.30;;;;;;4807603;29;20447;-78
2021/08/31 01:14:20;;;;;;;2.72;1.60;;;13.70;77.20;;;;;;4806283;29;20054;-79
2021/08/31 01:16:49;;;;;;;1.98;1.30;;;13.70;77.20;;;;;;4807582;29;20046;-78
2021/08/31 01:19:18;;;;;;;2.90;1.45;;;13.60;77.30;;;;;;4805711;29;20057;-79
2021/08/31 01:21:46;;;;;;;3.08;1.63;;;13.60;77.40;;;;;;4807194;29;20046;-78
2021/08/31 01:24:14;;;;;;;1.88;1.48;;;13.60;77.40;;;;;;4790877;29;20053;-79
2021/08/31 01:26:42;;;;;;;1.98;1.50;;;13.50;77.50;;;;;;4805982;29;20043;-79
2021/08/31 01:29:10;;;;;;;2.03;1.60;;;13.50;77.50;;;;;;4814250;29;20058;-79
2021/08/31 01:31:38;;;;;;;4.13;2.00;;;13.40;77.60;;;;;;4825370;29;20074;-79
2021/08/31 01:34:06;;;;;;;2.83;2.20;;;13.30;77.80;;;;;;4810725;29;20057;-79
2021/08/31 01:36:34;;;;;;;3.40;2.15;;;13.30;78.00;;;;;;4806889;29;20059;-79
2021/08/31 01:39:06;;;;;;;2.90;2.08;;;13.30;78.20;;;;;;4806814;29;20519;-79
2021/08/31 01:41:35;;;;;;;2.65;2.45;;;13.30;78.40;;;;;;4807445;29;20047;-79
2021/08/31 01:44:04;;;;;;;5.25;2.72;;;13.30;78.40;;;;;;4806499;29;20063;-77
2021/08/31 01:46:33;;;;;;;4.22;2.95;;;13.30;78.70;;;;;;4822594;29;20073;-79
2021/08/31 01:49:03;;;;;;;3.88;3.25;;;13.30;78.90;;;;;;4839129;29;20058;-79
2021/08/31 01:51:32;;;;;;;3.97;3.20;;;13.30;79.00;;;;;;4823004;29;20268;-78
2021/08/31 01:54:01;;;;;;;4.00;3.50;;;13.30;79.20;;;;;;4825185;29;20067;-79
2021/08/31 01:56:29;;;;;;;5.57;4.10;;;13.30;79.50;;;;;;4818644;29;20058;-79
2021/08/31 01:58:56;;;;;;;7.78;3.38;;;13.20;79.70;;;;;;4808107;29;20066;-79
2021/08/31 02:01:24;;;;;;;4.85;3.08;;;13.20;80.00;;;;;;4806519;29;20054;-79
2021/08/31 02:03:52;;;;;;;4.95;3.65;;;13.10;80.20;;;;;;4806442;29;20397;-79
2021/08/31 02:06:20;;;;;;;4.13;3.40;;;13.10;80.60;;;;;;4805661;29;20515;-77
2021/08/31 02:08:47;;;;;;;4.78;3.28;;;13.10;80.80;;;;;;4806618;29;20055;-78
2021/08/31 02:11:15;;;;;;;6.63;3.15;;;13.00;81.10;;;;;;4820101;29;20437;-78
2021/08/31 02:13:43;;;;;;;3.75;2.90;;;13.00;81.40;;;;;;4806085;29;20066;-78
2021/08/31 02:16:11;;;;;;;6.45;2.72;;;13.00;81.70;;;;;;4804483;29;20057;-78
2021/08/31 02:18:40;;;;;;;5.32;3.17;;;12.90;81.90;;;;;;4789672;29;20058;-78
2021/08/31 02:21:09;;;;;;;5.38;2.95;;;12.90;82.00;;;;;;4806609;29;20055;-79
2021/08/31 02:23:37;;;;;;;3.00;2.58;;;12.90;82.30;;;;;;4806161;29;20405;-77
2021/08/31 02:26:05;;;;;;;3.42;2.50;;;12.90;82.40;;;;;;4806143;29;20062;-78
2021/08/31 02:28:34;;;;;;;4.55;2.55;;;12.80;82.50;;;;;;4805865;29;20058;-78
2021/08/31 02:31:01;;;;;;;3.20;2.20;;;12.80;82.70;;;;;;4819679;29;20062;-77
2021/08/31 02:33:29;;;;;;;3.42;2.20;;;12.80;82.80;;;;;;4806158;29;20043;-78
2021/08/31 02:35:57;;;;;;;5.50;2.80;;;12.80;82.90;;;;;;4805498;29;20059;-77
2021/08/31 02:38:25;;;;;;;6.35;2.25;;;12.80;83.00;;;;;;4820037;29;20047;-79
2021/08/31 02:40:53;;;;;;;4.07;2.00;;;12.80;83.10;;;;;;4806163;29;20050;-78
2021/08/31 02:43:20;;;;;;;3.53;2.38;;;12.80;83.10;;;;;;4805766;29;20047;-78
2021/08/31 02:45:49;;;;;;;3.33;2.30;;;12.80;83.20;;;;;;4804690;29;20420;-79
2021/08/31 02:48:17;;;;;;;3.08;2.15;;;12.80;83.30;;;;;;4805953;29;20396;-79
2021/08/31 02:50:45;;;;;;;5.72;2.10;;;12.80;83.40;;;;;;4805844;29;20075;-78
2021/08/31 02:53:12;;;;;;;3.42;2.10;;;12.80;83.50;;;;;;4819333;29;20062;-77
2021/08/31 02:55:40;;;;;;;3.92;2.20;;;12.70;83.50;;;;;;4805801;29;20512;-77
2021/08/31 02:58:08;;;;;;;2.63;2.30;;;12.70;83.60;;;;;;4805573;29;20042;-77
2021/08/31 03:00:38;;;;;;;4.72;2.33;;;12.70;83.60;;;;;;4805616;29;20051;-78
2021/08/31 03:03:05;;;;;;;2.25;2.05;;;12.70;83.70;;;;;;4805766;29;20050;-78
2021/08/31 03:05:33;;;;;;;2.75;2.30;;;12.70;83.70;;;;;;4805452;29;20058;-77
2021/08/31 03:08:01;;;;;;;4.60;2.30;;;12.70;83.70;;;;;;4805608;29;20432;-80
2021/08/31 03:10:29;;;;;;;2.55;2.33;;;12.70;83.70;;;;;;4804599;29;20170;-79
2021/08/31 03:12:56;;;;;;;4.15;2.20;;;12.70;83.80;;;;;;4805438;29;20047;-79
2021/08/31 03:15:24;;;;;;;4.97;2.13;;;12.70;83.80;;;;;;4805281;29;20054;-78
2021/08/31 03:17:52;;;;;;;5.85;2.20;;;12.70;83.90;;;;;;4805464;29;20063;-78
2021/08/31 03:20:26;;;;;;;3.23;2.47;;;12.70;84.00;;;;;;4803451;29;20058;-80
2021/08/31 03:22:54;;;;;;;2.67;2.40;;;12.60;84.10;;;;;;4811771;29;20307;-78
2021/08/31 03:25:22;;;;;;;4.45;2.90;;;12.60;84.20;;;;;;4789629;29;20070;-78
2021/08/31 03:27:49;;;;;;;5.30;2.60;;;12.60;84.20;;;;;;4804730;29;20051;-79
2021/08/31 03:30:20;;;;;;;4.15;2.53;;;12.60;84.30;;;;;;4805382;29;20495;-79
2021/08/31 03:32:47;;;;;;;3.00;2.65;;;12.60;84.20;;;;;;4803929;29;20059;-79
2021/08/31 03:35:15;;;;;;;4.20;2.90;;;12.60;84.20;;;;;;4803206;29;20055;-79
2021/08/31 03:37:43;;;;;;;6.50;2.92;;;12.70;84.30;;;;;;4805442;29;20147;-79
2021/08/31 03:40:11;;;;;;;6.10;3.42;;;12.60;84.40;;;;;;4822592;29;20062;-80
2021/08/31 03:42:38;;;;;;;5.40;3.10;;;12.60;84.60;;;;;;4808413;29;20066;-78
2021/08/31 03:45:07;;;;;;;5.65;2.92;;;12.50;84.80;;;;;;4805116;29;20055;-77
2021/08/31 03:47:35;;;;;;;6.00;3.30;;;12.60;84.90;;;;;;4805287;29;20043;-78
2021/08/31 03:50:02;;;;;;;4.90;3.40;;;12.50;85.10;;;;;;4805227;29;20055;-79
2021/08/31 03:52:30;;;;;;;4.65;3.33;;;12.50;85.30;;;;;;4804727;29;20062;-77
2021/08/31 03:54:57;;;;;;;4.53;3.35;;;12.40;85.50;;;;;;4804134;29;20413;-78
2021/08/31 03:57:25;;;;;;;5.40;3.80;;;12.40;85.70;;;;;;4804040;29;20051;-78
2021/08/31 03:59:52;;;;;;;4.10;3.03;;;12.30;85.80;;;;;;4817915;29;20065;-78
2021/08/31 04:02:21;;;;;;;6.00;3.50;;;12.30;86.00;;;;;;4823205;29;20503;-79
2021/08/31 04:04:49;;;;;;;3.90;3.13;;;12.30;86.10;;;;;;4822017;29;20054;-78
2021/08/31 04:07:17;;;;;;;5.57;3.88;;;12.40;86.20;;;;;;4837178;29;20047;-78
2021/08/31 04:09:44;;;;;;;4.80;3.80;;;12.30;86.30;;;;;;4823168;29;20066;-78
2021/08/31 04:12:13;;;;;;;4.07;3.72;;;12.30;86.40;;;;;;4823223;29;20061;-78
2021/08/31 04:14:41;;;;;;;5.95;3.95;;;12.40;86.50;;;;;;4823516;29;20053;-79
2021/08/31 04:17:08;;;;;;;4.00;3.70;;;12.40;86.60;;;;;;4823249;29;20054;-78
2021/08/31 04:19:36;;;;;;;4.60;3.92;;;12.40;86.70;;;;;;4822958;29;20404;-78
2021/08/31 04:22:04;;;;;;;4.53;3.75;;;12.40;86.80;;;;;;4813628;29;20055;-78
2021/08/31 04:24:31;;;;;;;8.85;4.18;;;12.40;86.90;;;;;;4804703;29;20062;-79
2021/08/31 04:27:00;;;;;;;5.30;4.28;;;12.40;87.00;;;;;;4804337;29;20055;-79
2021/08/31 04:29:27;;;;;;;5.32;4.20;;;12.50;87.10;;;;;;4804781;29;20058;-79
2021/08/31 04:31:55;;;;;;;5.80;3.95;;;12.40;87.20;;;;;;4804843;29;20047;-78
2021/08/31 04:34:23;;;;;;;5.78;3.85;;;12.50;87.30;;;;;;4804817;29;20300;-78
2021/08/31 04:36:51;;;;;;;5.68;3.88;;;12.40;87.30;;;;;;4804705;29;20058;-78
2021/08/31 04:39:18;;;;;;;4.93;4.10;;;12.40;87.40;;;;;;4805868;29;20386;-78
2021/08/31 04:41:47;;;;;;;4.88;4.40;;;12.40;87.40;;;;;;4807997;29;20500;-78
2021/08/31 04:44:14;;;;;;;5.00;4.60;;;12.40;87.50;;;;;;4807963;29;20397;-78
2021/08/31 04:46:42;;;;;;;4.60;4.20;;;12.40;87.50;;;;;;4808075;29;20074;-78
2021/08/31 04:49:09;;;;;;;4.63;4.22;;;12.50;87.60;;;;;;4808274;29;20054;-78
2021/08/31 04:51:37;;;;;;;5.07;3.80;;;12.50;87.60;;;;;;4808574;29;20059;-78
2021/08/31 04:54:05;;;;;;;4.15;3.80;;;12.50;87.70;;;;;;4806908;29;20047;-78
2021/08/31 04:56:32;;;;;;;4.57;3.38;;;12.50;87.70;;;;;;4807587;29;20401;-79
2021/08/31 04:59:00;;;;;;;4.00;3.63;;;12.50;87.80;;;;;;4812988;29;20404;-79
2021/08/31 05:01:27;;;;;;;4.15;3.13;;;12.40;87.90;;;;;;4825854;29;20057;-79
2021/08/31 05:03:58;;;;;;;4.35;3.60;;;12.40;87.90;;;;;;4825990;29;20071;-79
2021/08/31 05:06:26;;;;;;;3.90;2.97;;;12.30;88.10;;;;;;4825667;29;20069;-79
2021/08/31 05:08:54;;;;;;;3.10;2.90;;;12.30;88.20;;;;;;4825227;29;20051;-79
2021/08/31 05:11:22;;;;;;;3.65;3.35;;;12.30;88.20;;;;;;4839815;29;20061;-79
2021/08/31 05:13:49;;;;;;;3.58;3.28;;;12.30;88.20;;;;;;4825490;29;20090;-79
2021/08/31 05:16:18;;;;;;;3.75;3.03;;;12.30;88.30;;;;;;4839094;29;20061;-79
2021/08/31 05:18:46;;;;;;;3.35;3.05;;;12.30;88.30;;;;;;4839706;29;20058;-79
2021/08/31 05:21:14;;;;;;;3.55;2.88;;;12.30;88.20;;;;;;4823601;29;20054;-80
2021/08/31 05:23:42;;;;;;;4.70;2.45;;;12.30;88.30;;;;;;4804361;29;20061;-80
2021/08/31 05:26:10;;;;;;;4.25;2.40;;;12.30;88.20;;;;;;4789186;30;20050;-79
2021/08/31 05:28:37;;;;;;;3.30;2.75;;;12.30;88.20;;;;;;4801066;29;20477;-79
2021/08/31 05:31:05;;;;;;;4.88;3.70;;;12.30;88.10;;;;;;4806057;29;20468;-80
2021/08/31 05:33:33;;;;;;;4.25;3.80;;;12.30;88.00;;;;;;4807279;29;20066;-79
2021/08/31 05:36:01;;;;;;;4.57;4.18;;;12.30;88.00;;;;;;4806960;29;20422;-79
2021/08/31 05:38:29;;;;;;;4.47;4.07;;;12.30;88.00;;;;;;4805974;29;20053;-79
2021/08/31 05:40:56;;;;;;;5.22;4.15;;;12.30;88.00;;;;;;4807003;29;20046;-79
2021/08/31 05:43:24;;;;;;;6.65;4.82;;;12.30;88.00;;;;;;4807101;29;20062;-79
2021/08/31 05:45:52;;;;;;;5.05;4.55;;;12.30;87.90;;;;;;4807271;29;20067;-80
2021/08/31 05:48:19;;;;;;;7.70;5.97;;;12.30;87.90;;;;;;4806890;29;20054;-79
2021/08/31 05:50:47;;;;;;;7.13;4.93;;;12.30;87.90;;;;;;4805665;29;20066;-79
2021/08/31 05:53:15;;;;;;;9.45;4.97;;;12.30;87.80;;;;;;4805581;29;20061;-79
2021/08/31 05:55:42;;;;;;;7.15;4.70;;;12.30;87.80;;;;;;4806768;29;20047;-78
2021/08/31 05:58:10;;;;;;;8.90;5.35;;;12.30;87.70;;;;;;4805476;29;20047;-79
2021/08/31 06:00:37;;;;;;;8.93;5.97;;;12.30;87.60;;;;;;4806670;29;20075;-79
2021/08/31 06:03:05;;;;;;;11.68;5.90;;;12.20;87.70;;;;;;4805320;29;20047;-78
2021/08/31 06:05:33;;;;;;;8.55;6.15;;;12.20;87.70;;;;;;4806470;29;20059;-79
2021/08/31 06:08:01;;;;;;;8.60;5.97;;;12.20;87.80;;;;;;4806385;29;20058;-79
2021/08/31 06:10:28;;;;;;;7.80;5.60;;;12.20;87.90;;;;;;4805197;29;20058;-78
2021/08/31 06:13:00;;;;;;;7.90;6.10;;;12.20;87.80;;;;;;4806511;29;20042;-79
2021/08/31 06:15:27;;;;;;;10.52;6.20;;;12.30;87.70;;;;;;4805055;29;20074;-79
2021/08/31 06:17:55;;;;;;;8.13;5.63;;;12.30;87.60;;;;;;4804993;29;20054;-79
2021/08/31 06:20:23;;;;;;;7.63;5.70;;;12.30;87.50;;;;;;4806251;29;20074;-79
2021/08/31 06:22:51;;;;;;;13.70;5.93;;;12.40;87.40;;;;;;4806305;29;20043;-79
2021/08/31 06:25:18;;;;;;;6.25;5.57;;;12.50;87.30;;;;;;4806263;29;20051;-79
2021/08/31 06:27:46;;;;;;;8.50;5.80;;;12.60;87.10;;;;;;4806048;29;20043;-79
2021/08/31 06:30:13;;;;;;;11.98;5.30;;;12.60;87.00;;;;;;4820144;29;20043;-78
2021/08/31 06:32:41;;;;;;;8.50;5.10;;;12.70;86.80;;;;;;4806202;29;20067;-79
2021/08/31 06:35:09;;;;;;;8.75;5.03;;;12.80;86.60;;;;;;4804836;29;20052;-79
2021/08/31 06:37:36;;;;;;;9.77;4.90;;;12.80;86.40;;;;;;4806104;29;20059;-78
2021/08/31 06:40:05;;;;;;;10.60;5.45;;;12.80;86.20;;;;;;4822571;29;20050;-79
2021/08/31 06:42:32;;;;;;;9.68;5.28;;;12.90;86.00;;;;;;4824304;29;20065;-77
2021/08/31 06:45:00;;;;;;;8.45;4.50;;;12.90;86.00;;;;;;4824089;29;20051;-78
2021/08/31 06:47:28;;;;;;;6.63;4.40;;;13.00;85.70;;;;;;4824005;29;20066;-77
2021/08/31 06:49:58;;;;;;;8.93;4.43;;;13.00;85.40;;;;;;4824033;29;20050;-78
2021/08/31 06:52:26;;;;;;;9.77;4.43;;;13.00;85.30;;;;;;4824183;29;20408;-78
2021/08/31 06:54:53;;;;;;;6.95;4.93;;;13.10;85.10;;;;;;4824089;29;20408;-78
2021/08/31 06:57:21;;;;;;;8.13;5.15;;;13.10;85.10;;;;;;4823869;29;20073;-78
2021/08/31 06:59:48;;;;;;;9.52;4.82;;;13.20;85.00;;;;;;4824004;29;20416;-78
2021/08/31 07:02:16;;;;;;;7.07;4.50;;;13.20;84.70;;;;;;4823714;29;20073;-78
2021/08/31 07:04:44;;;;;;;9.00;4.53;;;13.20;84.50;;;;;;4823711;29;20050;-79
2021/08/31 07:07:11;;;;;;;10.75;4.85;;;13.20;84.40;;;;;;4823886;29;20054;-79
2021/08/31 07:09:39;;;;;;;6.43;4.53;;;13.30;84.30;;;;;;4822490;29;20049;-78
2021/08/31 07:12:07;;;;;;;6.80;4.72;;;13.30;84.30;;;;;;4823694;29;20050;-77
2021/08/31 07:14:34;;;;;;;8.27;4.90;;;13.30;84.20;;;;;;4837660;29;20050;-79
2021/08/31 07:17:02;;;;;;;7.30;4.60;;;13.30;84.10;;;;;;4821847;29;20087;-79
2021/08/31 07:19:29;;;;;;;8.60;4.78;;;13.30;84.00;;;;;;4823373;29;20054;-79
2021/08/31 07:21:57;;;;;;;10.02;4.53;;;13.40;84.00;;;;;;4816141;29;20059;-78
2021/08/31 07:24:25;;;;;;;7.38;4.03;;;13.40;83.80;;;;;;4805289;29;20050;-78
2021/08/31 07:26:52;;;;;;;6.82;4.25;;;13.40;83.50;;;;;;4819121;29;20054;-78
2021/08/31 07:29:20;;;;;;;6.28;4.38;;;13.50;83.30;;;;;;4805063;29;20051;-77
2021/08/31 07:31:50;;;;;;;8.32;4.72;;;13.50;83.30;;;;;;4805197;29;20070;-78
2021/08/31 07:34:18;;;;;;;7.43;4.30;;;13.60;83.10;;;;;;4819313;29;20051;-78
2021/08/31 07:36:46;;;;;;;7.82;4.40;;;13.60;83.00;;;;;;4805309;29;20058;-79
2021/08/31 07:39:13;;;;;;;6.55;4.18;;;13.70;82.90;;;;;;4804924;29;20047;-77
2021/08/31 07:41:41;;;;;;;7.68;4.30;;;13.80;82.70;;;;;;4818875;29;20058;-78
2021/08/31 07:44:08;;;;;;;8.68;4.20;;;13.70;82.40;;;;;;4805237;29;20058;-78
2021/08/31 07:46:36;;;;;;;16.00;4.90;;;13.70;82.40;;;;;;4805209;29;20058;-77
2021/08/31 07:49:04;;;;;;;8.63;4.63;;;13.70;82.40;;;;;;4804871;29;20047;-78
2021/08/31 07:51:31;;;;;;;10.07;4.50;;;13.60;82.40;;;;;;4804986;29;20054;-78
2021/08/31 07:53:59;;;;;;;9.45;4.20;;;13.50;82.50;;;;;;4805052;29;20051;-77
2021/08/31 07:56:26;;;;;;;9.40;4.43;;;13.50;82.50;;;;;;4805001;29;20066;-77
2021/08/31 07:58:54;;;;;;;9.07;4.15;;;13.50;82.60;;;;;;4810432;29;20058;-77
2021/08/31 08:01:22;;;;;;;11.60;4.97;;;13.50;82.60;;;;;;4823155;29;20426;-78
2021/08/31 08:03:50;;;;;;;5.70;4.15;;;13.50;82.70;;;;;;4823151;29;20053;-78
2021/08/31 08:06:18;;;;;;;7.65;4.45;;;13.40;82.70;;;;;;4823165;29;20059;-78
2021/08/31 08:08:45;;;;;;;11.88;4.95;;;13.40;82.90;;;;;;4823103;29;20353;-78
2021/08/31 08:11:13;;;;;;;9.25;4.88;;;13.40;83.00;;;;;;4823300;29;20431;-78
2021/08/31 08:13:41;;;;;;;10.88;4.78;;;13.30;83.10;;;;;;4837500;29;20046;-78
2021/08/31 08:16:09;;;;;;;13.48;5.15;;;13.40;83.30;;;;;;4820096;29;20503;-78
2021/08/31 08:18:36;;;;;;;9.20;4.60;;;13.40;83.30;;;;;;4809067;29;20066;-78
2021/08/31 08:21:04;;;;;;;14.60;5.45;;;13.40;83.30;;;;;;4808375;29;20477;-78
2021/08/31 08:23:32;;;;;;;8.25;5.22;;;13.40;83.20;;;;;;4808452;29;20070;-78
2021/08/31 08:26:04;;;;;;;9.23;5.13;;;13.40;83.30;;;;;;4808348;29;20050;-78
2021/08/31 08:28:31;;;;;;;7.97;4.88;;;13.40;83.30;;;;;;4808419;29;20100;-78
2021/08/31 08:30:59;;;;;;;9.32;4.90;;;13.50;83.40;;;;;;4807944;29;20042;-78
2021/08/31 08:33:27;;;;;;;5.35;4.45;;;13.50;83.30;;;;;;4808131;29;20061;-79
2021/08/31 08:35:55;;;;;;;7.80;4.45;;;13.70;83.40;;;;;;4808065;29;20051;-78
2021/08/31 08:38:22;;;;;;;8.23;4.70;;;13.80;83.00;;;;;;4807788;29;20051;-78
2021/08/31 08:40:50;;;;;;;7.30;4.80;;;14.00;82.60;;;;;;4807842;29;20069;-78
2021/08/31 08:43:17;;;;;;;10.88;5.15;;;14.00;82.40;;;;;;4807912;29;20050;-78
2021/08/31 08:45:49;;;;;;;8.80;5.13;;;14.10;82.20;;;;;;4807676;29;20054;-79
2021/08/31 08:48:25;;;;;;;6.93;5.05;;;14.20;82.10;;;;;;4807958;29;20497;-77
2021/08/31 08:51:00;;;;;;;9.25;4.60;;;14.30;81.80;;;;;;4807779;29;20050;-80
2021/08/31 08:53:31;;;;;;;9.65;5.20;;;14.50;81.30;;;;;;4808111;29;20121;-78
2021/08/31 08:56:00;;;;;;;9.38;5.00;;;14.70;80.80;;;;;;4807284;29;20043;-78
2021/08/31 08:58:28;;;;;;;8.18;4.80;;;14.90;80.50;;;;;;4807727;29;20744;-77
2021/08/31 09:01:03;;;;;;;6.82;4.20;;;15.00;79.90;;;;;;4807335;29;20047;-78
2021/08/31 09:03:36;;;;;;;6.82;4.20;;;15.00;79.60;;;;;;4807980;29;20051;-78
2021/08/31 09:06:14;;;;;;;9.52;4.03;;;14.90;79.40;;;;;;4807750;29;20066;-74
2021/08/31 09:08:53;;;;;;;6.30;3.42;;;14.80;79.60;;;;;;4806385;29;20058;-74
2021/08/31 09:11:24;;;;;;;6.45;3.95;;;14.70;79.70;;;;;;4807315;29;20058;-74
2021/08/31 09:14:18;;;;;;;7.35;3.75;;;14.60;79.80;;;;;;4807373;29;20051;-74
2021/08/31 09:16:51;;;;;;;7.35;4.18;;;14.70;79.80;;;;;;4807657;29;20563;-74
2021/08/31 09:19:33;;;;;;;3.75;3.38;;;14.80;79.80;;;;;;4807540;29;20047;-74
2021/08/31 09:22:13;;;;;;;5.85;3.55;;;15.00;79.30;;;;;;4820457;29;20062;-74
2021/08/31 09:25:08;;;;;;;6.30;2.95;;;15.20;78.30;;;;;;4820950;29;20066;-74
2021/08/31 09:27:38;;;;;;;4.82;3.05;;;15.30;77.80;;;;;;4807357;29;20493;-73
2021/08/31 09:30:23;;;;;;;2.70;2.05;;;15.50;77.40;;;;;;4806938;29;20058;-74
2021/08/31 09:33:00;;;;;;;4.78;1.75;;;15.60;76.90;;;;;;4806166;29;20051;-74
2021/08/31 09:35:30;;;;;;;3.42;1.70;;;15.70;75.90;;;;;;4806076;29;20055;-74
2021/08/31 09:38:01;;;;;;;7.40;3.05;;;15.70;74.90;;;;;;4790750;29;20058;-72
2021/08/31 09:40:30;;;;;;;5.57;3.70;;;15.60;74.70;;;;;;4820893;29;20055;-74
2021/08/31 09:43:09;;;;;;;5.95;3.40;;;15.60;74.70;;;;;;4805918;29;20517;-73
2021/08/31 09:45:39;;;;;;;5.10;3.60;;;15.60;74.60;;;;;;4806740;29;20493;-74
2021/08/31 09:48:09;;;;;;;4.10;3.67;;;15.60;74.50;;;;;;4807036;29;20055;-74
2021/08/31 09:50:41;;;;;;;5.10;3.35;;;15.80;74.10;;;;;;4805923;29;20053;-74
2021/08/31 09:53:09;;;;;;;8.75;3.78;;;15.80;73.30;;;;;;4805798;29;20457;-79
2021/08/31 09:55:38;;;;;;;8.15;3.67;;;16.10;73.10;;;;;;4806569;29;20051;-78
2021/08/31 09:58:33;;;;;;;4.40;2.67;;;16.20;72.30;;;;;;4823314;29;20058;-74
2021/08/31 10:01:01;;;;;;;4.53;2.80;;;16.30;71.50;;;;;;4805901;29;20412;-75
2021/08/31 10:03:30;;;;;;;4.05;2.28;;;16.20;71.70;;;;;;4806108;29;20054;-75
2021/08/31 10:06:00;;;;;;;1.50;1.30;;;16.20;71.30;;;;;;4807177;29;20058;-75
2021/08/31 10:08:33;;;;;;;3.88;1.20;;;16.20;70.70;;;;;;4810591;29;20481;-74
2021/08/31 10:11:03;;;;;;;2.22;1.27;;;16.30;69.90;;;;;;4820299;29;20050;-75
2021/08/31 10:13:36;;;;;;;2.83;1.13;;;16.40;69.80;;;;;;4819130;29;20066;-74
2021/08/31 10:16:04;;;;;;;;;;;16.50;69.10;;;;;;4825154;29;20050;-75
2021/08/31 10:18:32;;;;;;;0.90;0.80;;;16.60;68.40;;;;;;4817689;29;19925;-75
2021/08/31 10:21:13;;;;;;;2.03;1.10;;;16.50;68.60;;;;;;4789991;29;20050;-75
2021/08/31 10:23:47;;;;;;;3.65;0.90;;;16.50;68.00;;;;;;4806038;29;20055;-75
2021/08/31 10:26:35;;;;;;;0.95;0.63;;;16.50;68.00;;;;;;4806057;29;20067;-75
2021/08/31 10:29:21;;;;;;;6.45;1.05;;;16.60;68.00;;;;;;4805467;29;20065;-75
2021/08/31 10:31:50;;;;;;;1.48;0.73;;;16.70;67.90;;;;;;4805448;29;20532;-74
2021/08/31 10:34:30;;;;;;;5.13;1.10;;;16.80;67.80;;;;;;4787987;30;20485;-75
2021/08/31 10:37:08;;;;;;;5.57;0.93;;;17.10;67.30;;;;;;4798473;29;20055;-74
2021/08/31 10:39:54;;;;;;;2.35;0.65;;;17.30;66.70;;;;;;4805554;29;20066;-76
2021/08/31 10:42:29;;;;;;;1.48;0.85;;;17.40;66.20;;;;;;4817249;29;20055;-75
2021/08/31 10:45:25;;;;;;;1.70;0.70;;;17.50;66.20;;;;;;4819918;29;20054;-73
2021/08/31 10:47:53;;;;;;;4.88;0.93;;;17.60;65.50;;;;;;4805209;29;20055;-76
2021/08/31 10:50:26;;;;;;;2.88;0.82;;;17.50;65.00;;;;;;4804419;29;20057;-75
2021/08/31 10:52:56;;;;;;;;;;;17.30;65.10;;;;;;4804889;29;20413;-75
2021/08/31 10:55:24;;;;;;;1.90;0.60;;;17.20;65.40;;;;;;4803648;29;20299;-74
2021/08/31 10:57:57;;;;;;;1.05;0.70;;;17.00;65.80;;;;;;4806632;29;20039;-73
2021/08/31 11:00:25;;;;;;;2.10;0.75;;;17.00;65.90;;;;;;4808387;29;20425;-74
2021/08/31 11:02:54;;;;;;;1.48;0.77;;;17.00;66.20;;;;;;4803848;29;20054;-75
2021/08/31 11:05:21;;;;;;;1.25;0.68;;;17.10;66.20;;;;;;4804000;29;20069;-74
2021/08/31 11:08:01;;;;;;;3.22;0.90;;;17.20;66.20;;;;;;4804107;29;20062;-75
2021/08/31 11:10:32;;;;;;;0.77;0.50;;;17.30;66.10;;;;;;4803970;29;20050;-74
2021/08/31 11:13:10;;;;;;;1.33;0.80;;;17.50;65.90;;;;;;4816762;29;20532;-75
2021/08/31 11:15:39;;;;;;;1.00;0.60;;;17.60;65.50;;;;;;4804062;29;20050;-76
2021/08/31 11:18:12;;;;;;;1.25;0.70;;;17.60;64.90;;;;;;4804029;29;20082;-81
2021/08/31 11:20:42;;;;;;;4.13;0.85;;;17.60;64.60;;;;;;4804611;29;20043;-74
2021/08/31 11:23:10;;;;;;;1.67;0.55;;;17.50;64.90;;;;;;4804059;29;20054;-74
2021/08/31 11:25:39;;;;;;;1.67;0.43;;;17.40;64.90;;;;;;4802691;29;20053;-74
2021/08/31 11:28:20;;;;;;;0.93;0.70;;;17.30;65.00;;;;;;4803209;29;20054;-75
2021/08/31 11:30:52;;;;;;;1.05;0.70;;;17.30;65.10;;;;;;4803963;29;20393;-75
2021/08/31 11:33:27;;;;;;;2.20;0.50;;;17.20;65.40;;;;;;4804783;29;20065;-75
2021/08/31 11:36:00;;;;;;;0.40;0.40;;;17.10;65.70;;;;;;4800491;29;20051;-75
2021/08/31 11:38:33;;;;;;;4.22;0.60;;;17.10;66.00;;;;;;4801833;29;20055;-75
2021/08/31 11:41:19;;;;;;;2.95;0.50;;;17.10;66.10;;;;;;4803856;29;20058;-75
2021/08/31 11:43:51;;;;;;;1.77;0.77;;;17.30;65.80;;;;;;4802992;29;20059;-75
2021/08/31 11:46:34;;;;;;;0.73;0.60;;;17.40;65.60;;;;;;4801101;29;20050;-76
2021/08/31 11:49:06;;;;;;;1.75;0.80;;;17.50;65.00;;;;;;4804682;29;20071;-75
2021/08/31 11:51:35;;;;;;;1.73;0.90;;;17.50;64.70;;;;;;4807486;29;20051;-76
2021/08/31 11:54:08;;;;;;;1.10;1.00;;;17.50;64.70;;;;;;4807231;29;20551;-75
2021/08/31 11:56:37;;;;;;;2.40;0.80;;;17.50;64.80;;;;;;4822805;29;20504;-75
2021/08/31 11:59:05;;;;;;;2.78;1.13;;;17.40;64.80;;;;;;4808112;29;20065;-74
2021/08/31 12:01:35;;;;;;;2.88;1.00;;;17.30;65.20;;;;;;4808033;29;20047;-75
2021/08/31 12:04:14;;;;;;;1.83;1.05;;;17.20;65.40;;;;;;4808451;29;20531;-74
2021/08/31 12:06:43;;;;;;;0.80;0.70;;;17.10;65.60;;;;;;4808898;29;20524;-75
2021/08/31 12:09:16;;;;;;;1.25;0.85;;;17.00;65.60;;;;;;4819270;29;20051;-75
2021/08/31 12:11:49;;;;;;;1.42;0.80;;;17.00;65.40;;;;;;4806542;29;20043;-74
2021/08/31 12:14:18;;;;;;;1.27;0.80;;;17.00;65.90;;;;;;4808584;29;20055;-75
2021/08/31 12:16:46;;;;;;;0.88;0.80;;;17.10;65.70;;;;;;4807070;29;20420;-75
2021/08/31 12:19:19;;;;;;;2.28;0.93;;;17.20;65.30;;;;;;4821894;29;20051;-75
2021/08/31 12:22:13;;;;;;;2.15;0.90;;;17.20;65.10;;;;;;4808381;29;20059;-75
2021/08/31 12:24:56;;;;;;;1.30;0.80;;;17.30;64.60;;;;;;4821396;29;20066;-75
2021/08/31 12:27:23;;;;;;;1.08;0.85;;;17.40;64.70;;;;;;4807029;29;20074;-74
2021/08/31 12:29:54;;;;;;;2.25;0.88;;;17.70;64.40;;;;;;4808424;29;20047;-74
2021/08/31 12:32:28;;;;;;;2.13;1.00;;;17.80;63.40;;;;;;4807528;29;20393;-74
2021/08/31 12:35:24;;;;;;;3.70;1.70;;;18.00;63.40;;;;;;4807446;29;20055;-74
2021/08/31 12:38:22;;;;;;;2.92;1.83;;;18.10;64.00;;;;;;4801294;29;20050;-75
2021/08/31 12:40:54;;;;;;;2.03;1.83;;;18.00;64.20;;;;;;4793002;29;20074;-74
2021/08/31 12:43:27;;;;;;;3.45;1.92;;;17.80;64.40;;;;;;4806899;29;20047;-74
2021/08/31 12:46:01;;;;;;;4.45;2.53;;;17.30;64.80;;;;;;4807857;29;20054;-73
2021/08/31 12:48:38;;;;;;;;;;;17.00;65.40;;;;;;4807476;29;20047;-74
2021/08/31 12:51:06;;;;;;;6.15;2.90;;;16.80;66.10;;;;;;4806986;29;20313;-74
2021/08/31 12:53:52;;;;;;;4.55;3.25;;;16.60;66.60;;;;;;4804517;29;20062;-75
2021/08/31 12:56:19;;;;;;;6.13;4.28;;;16.30;67.20;;;;;;4806410;29;20063;-74
2021/08/31 12:58:47;;;;;;;5.72;4.00;;;16.30;67.50;;;;;;4807268;29;20066;-74
2021/08/31 13:01:20;;;;;;;6.03;4.30;;;16.20;67.90;;;;;;4806570;29;20500;-74
2021/08/31 13:04:01;;;;;;;5.40;4.75;;;16.20;67.90;;;;;;4805541;29;20059;-74